Time;durP1;ratioP1;P1;durP2;ratioP2;P2;SDS_P1;SDS_P2;PMS_P1;PMS_P2;Temp;Humidity;BMP_temperature;BMP_pressure;BME280_temperature;BME280_humidity;BME280_pressure;Samples;Min_cycle;Max_cycle;Signal;HPM_P1;HPM_P2
2022/12/23 00:00:02;;;;;;;2.90;1.97;;;;;;;;;;5072174;28;20206;-77
2022/12/23 00:02:36;;;;;;;5.73;2.47;;;;;;;;;;5063317;28;20192;-77
2022/12/23 00:05:29;;;;;;;3.87;1.77;;;;;;;;;;5069721;28;20209;-77
2022/12/23 00:08:09;;;;;;;4.37;2.07;;;;;;;;;;5061206;28;20278;-77
2022/12/23 00:10:50;;;;;;;4.00;1.57;;;;;;;;;;5059858;28;20195;-77
2022/12/23 00:16:58;;;;;;;2.27;1.43;;;;;;;;;;5058510;28;20729;-77
2022/12/23 00:19:28;;;;;;;1.30;1.00;;;;;;;;;;5057869;28;20687;-78
2022/12/23 00:23:03;;;;;;;2.10;1.43;;;;;;;;;;5062368;28;20683;-78
2022/12/23 00:25:43;;;;;;;1.97;1.43;;;;;;;;;;5059512;28;20285;-78
2022/12/23 00:28:32;;;;;;;2.17;1.10;;;;;;;;;;5070546;28;20202;-78
2022/12/23 00:31:03;;;;;;;2.27;1.20;;;;;;;;;;5064856;28;20695;-77
2022/12/23 00:33:31;;;;;;;1.90;1.07;;;;;;;;;;5067011;28;20698;-77
2022/12/23 00:36:00;;;;;;;1.70;1.27;;;;;;;;;;5060979;28;20224;-77
2022/12/23 00:44:17;;;;;;;2.57;1.10;;;;;;;;;;5066053;28;20225;-77
2022/12/23 00:46:57;;;;;;;2.97;1.27;;;;;;;;;;5056370;28;20199;-77
2022/12/23 00:49:43;;;;;;;2.13;0.90;;;;;;;;;;5055153;28;20199;-77
2022/12/23 00:52:22;;;;;;;1.80;1.00;;;;;;;;;;5070683;28;20286;-77
2022/12/23 00:54:50;;;;;;;1.93;0.93;;;;;;;;;;5034940;28;20201;-77
2022/12/23 00:57:21;;;;;;;3.07;1.00;;;;;;;;;;5052606;28;20219;-77
2022/12/23 00:59:54;;;;;;;1.30;0.73;;;;;;;;;;5050258;28;20290;-77
2022/12/23 01:10:35;;;;;;;1.63;0.60;;;;;;;;;;5063023;28;20659;-77
2022/12/23 01:13:05;;;;;;;1.70;0.60;;;;;;;;;;5063000;28;20286;-77
2022/12/23 01:15:42;;;;;;;1.17;0.80;;;;;;;;;;5067134;28;20252;-77
2022/12/23 01:18:15;;;;;;;2.20;0.80;;;;;;;;;;5050448;28;20191;-77
2022/12/23 01:23:44;;;;;;;2.00;0.90;;;;;;;;;;5047166;28;20214;-77
2022/12/23 01:26:39;;;;;;;1.00;0.70;;;;;;;;;;5051347;28;20667;-77
2022/12/23 01:29:09;;;;;;;1.60;0.80;;;;;;;;;;5063513;28;20221;-77
2022/12/23 01:34:22;;;;;;;1.63;1.00;;;;;;;;;;5064699;28;20210;-77
2022/12/23 01:36:50;;;;;;;2.93;1.03;;;;;;;;;;5059703;28;20302;-77
2022/12/23 01:39:20;;;;;;;1.83;0.90;;;;;;;;;;5071425;28;20205;-77
2022/12/23 01:45:06;;;;;;;2.80;0.93;;;;;;;;;;5032235;28;20663;-77
2022/12/23 01:47:50;;;;;;;1.67;0.77;;;;;;;;;;5046248;28;20198;-76
2022/12/23 01:50:42;;;;;;;2.93;0.97;;;;;;;;;;5055849;28;20196;-77
2022/12/23 01:53:36;;;;;;;3.63;0.93;;;;;;;;;;5010922;28;20208;-77
2022/12/23 01:56:10;;;;;;;4.30;0.90;;;;;;;;;;5036112;28;20317;-77
2022/12/23 01:58:49;;;;;;;2.93;1.33;;;;;;;;;;5035531;28;20203;-77
2022/12/23 02:04:11;;;;;;;2.20;1.10;;;;;;;;;;5036021;28;20241;-77
2022/12/23 02:09:44;;;;;;;2.57;1.30;;;;;;;;;;5051124;28;20206;-77
2022/12/23 02:12:32;;;;;;;3.47;1.13;;;;;;;;;;5045993;28;20196;-77
2022/12/23 02:18:19;;;;;;;3.90;1.10;;;;;;;;;;5045344;28;20227;-77
2022/12/23 02:21:12;;;;;;;;;;;;;;;;;;;;;
2022/12/23 02:24:05;;;;;;;4.37;0.90;;;;;;;;;;5042427;28;20200;-77
2022/12/23 02:26:59;;;;;;;7.97;1.40;;;;;;;;;;5035612;28;20201;-77
2022/12/23 02:29:52;;;;;;;2.43;0.90;;;;;;;;;;5041360;28;20248;-77
2022/12/23 02:32:33;;;;;;;3.40;0.87;;;;;;;;;;5027011;28;20223;-77
2022/12/23 02:35:21;;;;;;;4.83;0.97;;;;;;;;;;5051590;28;20199;-77
2022/12/23 02:41:02;;;;;;;2.43;1.20;;;;;;;;;;5053401;28;20255;-77
2022/12/23 02:43:40;;;;;;;3.67;1.20;;;;;;;;;;5062823;28;20583;-77
2022/12/23 02:46:15;;;;;;;3.93;1.10;;;;;;;;;;5062939;28;20199;-77
2022/12/23 02:48:56;;;;;;;3.00;0.90;;;;;;;;;;5066264;28;20217;-77
2022/12/23 02:51:31;;;;;;;3.40;1.17;;;;;;;;;;5057400;28;20282;-77
2022/12/23 02:54:04;;;;;;;3.40;1.10;;;;;;;;;;5062211;28;20199;-77
2022/12/23 02:56:39;;;;;;;5.60;1.27;;;;;;;;;;5054549;28;20254;-77
2022/12/23 02:59:22;;;;;;;2.67;1.20;;;;;;;;;;5054814;28;20206;-77
2022/12/23 03:01:50;;;;;;;4.67;1.47;;;;;;;;;;5061288;28;20202;-77
2022/12/23 03:04:39;;;;;;;3.57;1.57;;;;;;;;;;5063051;28;20564;-77
2022/12/23 03:07:08;;;;;;;6.83;1.60;;;;;;;;;;5045280;28;20204;-77
2022/12/23 03:10:19;;;;;;;4.03;1.80;;;;;;;;;;5056714;28;20294;-77
2022/12/23 03:12:52;;;;;;;4.77;1.60;;;;;;;;;;5049577;28;20195;-77
2022/12/23 03:15:38;;;;;;;5.20;1.50;;;;;;;;;;5067672;28;20203;-77
2022/12/23 03:18:15;;;;;;;7.70;2.40;;;;;;;;;;5057502;28;20627;-77
2022/12/23 03:20:52;;;;;;;5.60;1.50;;;;;;;;;;5065353;28;20549;-77
2022/12/23 03:23:24;;;;;;;4.87;1.30;;;;;;;;;;5066697;28;20941;-77
2022/12/23 03:25:58;;;;;;;6.03;1.50;;;;;;;;;;5063006;28;20203;-77
2022/12/23 03:31:42;;;;;;;5.10;1.53;;;;;;;;;;5057728;28;20267;-77
2022/12/23 03:37:08;;;;;;;7.13;1.80;;;;;;;;;;5061449;28;20626;-77
2022/12/23 03:39:40;;;;;;;4.30;1.87;;;;;;;;;;5065357;28;20268;-77
2022/12/23 03:42:12;;;;;;;4.00;1.70;;;;;;;;;;5064335;28;20214;-77
2022/12/23 03:44:49;;;;;;;9.67;1.93;;;;;;;;;;5061469;28;20691;-77
2022/12/23 03:47:40;;;;;;;7.00;1.90;;;;;;;;;;5069688;28;20207;-77
2022/12/23 03:53:24;;;;;;;6.60;1.90;;;;;;;;;;4962081;28;20293;-78
2022/12/23 03:55:52;;;;;;;5.57;1.80;;;;;;;;;;4973479;28;20334;-78
2022/12/23 03:58:23;;;;;;;6.87;2.00;;;;;;;;;;4972783;28;20278;-78
2022/12/23 04:00:55;;;;;;;7.50;2.20;;;;;;;;;;4962439;28;20238;-78
2022/12/23 04:03:23;;;;;;;6.77;1.90;;;;;;;;;;4971649;28;20242;-78
2022/12/23 04:05:53;;;;;;;7.87;2.03;;;;;;;;;;4971700;28;20229;-78
2022/12/23 04:08:24;;;;;;;8.50;2.03;;;;;;;;;;4972334;28;20199;-78
2022/12/23 04:10:51;;;;;;;7.67;1.90;;;;;;;;;;4972613;28;20229;-79
2022/12/23 04:13:18;;;;;;;6.90;2.00;;;;;;;;;;4971931;28;20229;-78
2022/12/23 04:15:46;;;;;;;5.40;1.83;;;;;;;;;;4972216;28;20240;-77
2022/12/23 04:18:15;;;;;;;9.37;2.30;;;;;;;;;;4972467;28;20257;-77
2022/12/23 04:20:42;;;;;;;9.37;2.20;;;;;;;;;;4971865;28;20257;-77
2022/12/23 04:23:09;;;;;;;4.73;1.90;;;;;;;;;;4971708;28;20746;-77
2022/12/23 04:25:38;;;;;;;8.27;2.10;;;;;;;;;;4971974;28;20684;-78
2022/12/23 04:28:05;;;;;;;4.83;2.00;;;;;;;;;;4964002;28;20233;-78
2022/12/23 04:30:32;;;;;;;5.30;1.80;;;;;;;;;;5041185;28;20243;-77
2022/12/23 04:32:59;;;;;;;6.93;2.03;;;;;;;;;;5062665;28;20797;-78
2022/12/23 04:35:27;;;;;;;5.93;1.97;;;;;;;;;;5066949;28;20230;-78
2022/12/23 04:37:54;;;;;;;6.07;1.70;;;;;;;;;;5069224;28;20646;-78
2022/12/23 04:40:21;;;;;;;5.43;1.70;;;;;;;;;;5059553;28;20262;-78
2022/12/23 04:42:49;;;;;;;5.77;1.43;;;;;;;;;;5052571;28;20692;-78
2022/12/23 04:45:17;;;;;;;2.87;1.20;;;;;;;;;;5067807;28;20226;-77
2022/12/23 04:47:44;;;;;;;2.87;1.27;;;;;;;;;;5065441;28;20219;-78
2022/12/23 04:50:14;;;;;;;5.87;1.63;;;;;;;;;;5072420;28;20234;-78
2022/12/23 04:52:41;;;;;;;5.40;1.40;;;;;;;;;;5072904;28;20726;-78
2022/12/23 04:55:08;;;;;;;6.20;1.30;;;;;;;;;;5072837;28;20294;-79
2022/12/23 04:57:35;;;;;;;5.70;1.30;;;;;;;;;;5072745;28;20314;-78
2022/12/23 05:00:04;;;;;;;4.60;1.53;;;;;;;;;;5071853;28;20234;-78
2022/12/23 05:02:31;;;;;;;7.07;1.50;;;;;;;;;;5057797;28;20691;-78
2022/12/23 05:04:58;;;;;;;3.07;1.40;;;;;;;;;;5060627;28;20249;-78
2022/12/23 05:07:26;;;;;;;3.53;1.60;;;;;;;;;;5073285;28;20234;-78
2022/12/23 05:09:53;;;;;;;2.60;1.50;;;;;;;;;;5072465;28;20238;-78
2022/12/23 05:12:20;;;;;;;2.43;1.40;;;;;;;;;;5052166;28;20259;-78
2022/12/23 05:14:48;;;;;;;3.37;1.53;;;;;;;;;;5052423;28;20242;-78
2022/12/23 05:17:16;;;;;;;4.40;2.00;;;;;;;;;;5063860;28;20688;-78
2022/12/23 05:19:43;;;;;;;3.90;2.10;;;;;;;;;;5051845;28;20282;-78
2022/12/23 05:22:10;;;;;;;3.47;1.90;;;;;;;;;;5054282;28;20234;-78
2022/12/23 05:24:38;;;;;;;2.90;2.00;;;;;;;;;;5071052;28;20290;-78
2022/12/23 05:27:05;;;;;;;3.10;2.00;;;;;;;;;;5071601;28;20729;-78
2022/12/23 05:29:32;;;;;;;3.20;1.30;;;;;;;;;;5071474;28;20267;-78
2022/12/23 05:31:59;;;;;;;1.63;0.93;;;;;;;;;;5068719;28;20687;-77
2022/12/23 05:34:28;;;;;;;3.57;1.20;;;;;;;;;;5064953;28;20285;-78
2022/12/23 05:36:55;;;;;;;4.40;1.50;;;;;;;;;;5069459;28;20675;-78
2022/12/23 05:39:22;;;;;;;3.27;1.10;;;;;;;;;;5068222;28;20230;-78
2022/12/23 05:41:50;;;;;;;2.90;1.10;;;;;;;;;;5071874;28;20238;-78
2022/12/23 05:44:17;;;;;;;2.73;0.90;;;;;;;;;;5065319;28;20226;-78
2022/12/23 05:46:44;;;;;;;2.50;0.93;;;;;;;;;;5060223;28;20235;-79
2022/12/23 05:49:11;;;;;;;3.33;1.00;;;;;;;;;;5052078;28;20223;-79
2022/12/23 05:51:40;;;;;;;2.97;0.93;;;;;;;;;;5051710;28;20235;-79
2022/12/23 05:54:07;;;;;;;2.60;1.10;;;;;;;;;;5053807;28;20238;-79
2022/12/23 05:56:34;;;;;;;5.13;1.13;;;;;;;;;;5054814;28;20238;-79
2022/12/23 05:59:01;;;;;;;3.10;1.10;;;;;;;;;;5051694;28;20265;-79
2022/12/23 06:01:28;;;;;;;4.77;1.20;;;;;;;;;;5051986;28;20675;-78
2022/12/23 06:03:55;;;;;;;6.63;1.50;;;;;;;;;;5070347;28;20201;-79
2022/12/23 06:06:23;;;;;;;3.47;1.30;;;;;;;;;;5072364;28;20203;-79
2022/12/23 06:08:52;;;;;;;3.90;1.47;;;;;;;;;;5055725;28;20194;-79
2022/12/23 06:11:19;;;;;;;4.57;1.10;;;;;;;;;;5051862;28;20231;-78
2022/12/23 06:13:46;;;;;;;5.60;1.20;;;;;;;;;;5061093;28;20288;-79
2022/12/23 06:16:13;;;;;;;3.23;1.40;;;;;;;;;;5059071;28;20234;-79
2022/12/23 06:18:41;;;;;;;7.33;2.00;;;;;;;;;;5059353;28;20306;-79
2022/12/23 06:21:08;;;;;;;6.47;2.00;;;;;;;;;;5051636;28;20236;-78
2022/12/23 06:23:35;;;;;;;5.43;1.80;;;;;;;;;;5055341;28;20233;-79
2022/12/23 06:26:04;;;;;;;3.97;1.70;;;;;;;;;;5070590;28;20691;-79
2022/12/23 06:28:31;;;;;;;6.40;1.90;;;;;;;;;;5071574;28;20226;-79
2022/12/23 06:30:59;;;;;;;6.13;1.87;;;;;;;;;;5058948;28;20749;-78
2022/12/23 06:33:26;;;;;;;8.10;2.20;;;;;;;;;;5068798;28;20231;-78
2022/12/23 06:35:53;;;;;;;5.50;1.57;;;;;;;;;;5070002;28;20683;-78
2022/12/23 06:38:20;;;;;;;5.77;1.87;;;;;;;;;;5058671;28;20247;-79
2022/12/23 06:40:47;;;;;;;4.53;1.90;;;;;;;;;;5069535;28;20306;-79
2022/12/23 06:43:16;;;;;;;6.27;2.00;;;;;;;;;;5067800;28;20242;-79
2022/12/23 06:45:46;;;;;;;4.53;1.70;;;;;;;;;;5063537;28;20199;-79
2022/12/23 06:48:14;;;;;;;4.60;1.47;;;;;;;;;;5073664;28;20246;-79
2022/12/23 06:50:41;;;;;;;4.67;1.53;;;;;;;;;;5074716;28;20682;-79
2022/12/23 06:53:08;;;;;;;5.47;1.70;;;;;;;;;;5074401;28;20230;-79
2022/12/23 06:55:35;;;;;;;5.57;1.97;;;;;;;;;;5061318;28;20239;-79
2022/12/23 06:58:03;;;;;;;3.97;1.70;;;;;;;;;;5070922;28;20226;-79
2022/12/23 07:00:31;;;;;;;4.40;2.07;;;;;;;;;;5058558;28;20781;-79
2022/12/23 07:02:58;;;;;;;3.07;1.67;;;;;;;;;;5071739;28;20234;-79
2022/12/23 07:05:26;;;;;;;4.73;2.17;;;;;;;;;;5073735;28;20208;-78
2022/12/23 07:07:53;;;;;;;4.63;1.30;;;;;;;;;;5072622;28;20223;-79
2022/12/23 07:10:20;;;;;;;3.67;1.03;;;;;;;;;;5056979;28;20236;-79
2022/12/23 07:12:47;;;;;;;3.83;1.20;;;;;;;;;;5068745;28;20228;-79
2022/12/23 07:15:14;;;;;;;2.73;1.30;;;;;;;;;;5063156;28;20750;-78
2022/12/23 07:17:43;;;;;;;3.60;1.30;;;;;;;;;;5061474;28;20289;-77
2022/12/23 07:20:12;;;;;;;1.20;0.60;;;;;;;;;;5071266;28;20230;-78
2022/12/23 07:22:39;;;;;;;2.17;1.40;;;;;;;;;;5070130;28;20684;-78
2022/12/23 07:25:07;;;;;;;2.43;1.13;;;;;;;;;;5061566;28;20639;-78
2022/12/23 07:27:34;;;;;;;4.30;1.20;;;;;;;;;;5073785;28;20325;-78
2022/12/23 07:30:01;;;;;;;2.83;1.30;;;;;;;;;;5074375;28;20280;-78
2022/12/23 07:32:28;;;;;;;1.93;1.23;;;;;;;;;;5071250;28;20241;-77
2022/12/23 07:34:57;;;;;;;1.57;0.90;;;;;;;;;;5073534;28;20226;-77
2022/12/23 07:37:24;;;;;;;2.27;0.80;;;;;;;;;;5064586;28;20238;-77
2022/12/23 07:39:51;;;;;;;3.73;0.90;;;;;;;;;;5065704;28;20266;-77
2022/12/23 07:42:18;;;;;;;2.23;0.87;;;;;;;;;;5053636;28;20239;-77
2022/12/23 07:44:45;;;;;;;2.63;1.03;;;;;;;;;;5067886;28;20282;-77
2022/12/23 07:47:14;;;;;;;2.03;0.70;;;;;;;;;;5066331;28;20238;-77
2022/12/23 07:49:41;;;;;;;1.70;1.23;;;;;;;;;;5061928;28;20663;-77
2022/12/23 07:52:10;;;;;;;2.50;0.90;;;;;;;;;;5064646;28;20282;-78
2022/12/23 07:54:37;;;;;;;3.33;1.20;;;;;;;;;;5062426;28;20238;-78
2022/12/23 07:57:04;;;;;;;4.53;1.53;;;;;;;;;;5061680;28;20294;-77
2022/12/23 07:59:31;;;;;;;3.77;1.30;;;;;;;;;;5070896;28;20310;-78
2022/12/23 08:01:58;;;;;;;3.00;1.30;;;;;;;;;;5065709;28;20687;-78
2022/12/23 08:04:25;;;;;;;4.37;1.63;;;;;;;;;;5072851;28;20231;-78
2022/12/23 08:06:53;;;;;;;3.07;1.40;;;;;;;;;;5069668;28;20238;-78
2022/12/23 08:09:21;;;;;;;4.87;1.77;;;;;;;;;;5060062;28;20282;-77
2022/12/23 08:11:48;;;;;;;5.43;1.60;;;;;;;;;;5064791;28;20228;-78
2022/12/23 08:14:16;;;;;;;5.07;1.90;;;;;;;;;;5067593;28;20671;-77
2022/12/23 08:16:43;;;;;;;4.37;1.87;;;;;;;;;;5055927;28;20646;-78
2022/12/23 08:19:10;;;;;;;4.27;1.47;;;;;;;;;;5071675;28;20270;-79
2022/12/23 08:21:37;;;;;;;5.07;1.53;;;;;;;;;;5063897;28;20237;-79
2022/12/23 08:24:04;;;;;;;4.63;1.43;;;;;;;;;;5065227;28;20294;-79
2022/12/23 08:26:33;;;;;;;5.83;1.47;;;;;;;;;;5066272;28;20234;-79
2022/12/23 08:29:00;;;;;;;6.90;1.63;;;;;;;;;;5070582;28;20218;-79
2022/12/23 08:31:30;;;;;;;3.23;1.57;;;;;;;;;;5066668;28;20249;-79
2022/12/23 08:33:58;;;;;;;4.83;1.40;;;;;;;;;;5055554;28;20203;-79
2022/12/23 08:36:26;;;;;;;6.53;1.73;;;;;;;;;;5068307;28;20231;-79
2022/12/23 08:38:54;;;;;;;4.97;1.60;;;;;;;;;;5065018;28;20250;-79
2022/12/23 08:41:22;;;;;;;4.73;1.53;;;;;;;;;;5056763;28;20282;-80
2022/12/23 08:43:51;;;;;;;8.37;1.97;;;;;;;;;;5071292;28;20261;-80
2022/12/23 08:46:19;;;;;;;8.40;1.83;;;;;;;;;;5069187;28;20223;-79
2022/12/23 08:48:46;;;;;;;8.30;2.50;;;;;;;;;;5061430;28;20282;-79
2022/12/23 08:51:15;;;;;;;9.97;2.57;;;;;;;;;;5055952;28;20218;-80
2022/12/23 08:53:43;;;;;;;9.40;3.10;;;;;;;;;;5060835;28;20207;-79
2022/12/23 08:56:11;;;;;;;8.47;2.40;;;;;;;;;;5065997;28;20709;-79
2022/12/23 08:58:39;;;;;;;9.13;2.60;;;;;;;;;;5057033;28;20302;-79
2022/12/23 09:01:09;;;;;;;7.30;2.63;;;;;;;;;;5061028;28;20230;-79
2022/12/23 09:03:37;;;;;;;9.20;3.23;;;;;;;;;;5060521;28;20231;-79
2022/12/23 09:06:04;;;;;;;12.93;2.60;;;;;;;;;;5066112;28;20227;-79
2022/12/23 09:08:32;;;;;;;12.53;3.17;;;;;;;;;;5054939;28;20203;-79
2022/12/23 09:10:59;;;;;;;11.93;2.77;;;;;;;;;;5065214;28;20285;-79
2022/12/23 09:13:26;;;;;;;10.73;2.80;;;;;;;;;;5061812;28;20223;-80
2022/12/23 09:15:53;;;;;;;12.57;2.87;;;;;;;;;;5058012;28;20235;-79
2022/12/23 09:18:22;;;;;;;14.17;3.03;;;;;;;;;;5052355;28;20255;-79
2022/12/23 09:20:49;;;;;;;8.33;2.80;;;;;;;;;;5063806;28;20754;-79
2022/12/23 09:23:17;;;;;;;10.57;2.40;;;;;;;;;;5052758;28;20250;-79
2022/12/23 09:25:44;;;;;;;12.97;3.43;;;;;;;;;;5053989;28;20260;-78
